sensor_id;sensor_type;location;lat;lon;timestamp;P1;durP1;ratioP1;P2;durP2;ratioP2
20159;SDS011;50187;50.492;12.134;2023-04-24T00:02:05;2.20;;;2.00;;
20159;SDS011;50187;50.492;12.134;2023-04-24T00:04:33;2.00;;;1.90;;
20159;SDS011;50187;50.492;12.134;2023-04-24T00:07:00;2.10;;;1.90;;
20159;SDS011;50187;50.492;12.134;2023-04-24T00:09:26;1.97;;;1.87;;
20159;SDS011;50187;50.492;12.134;2023-04-24T00:11:53;1.90;;;1.80;;
20159;SDS011;50187;50.492;12.134;2023-04-24T00:14:20;1.90;;;1.80;;
20159;SDS011;50187;50.492;12.134;2023-04-24T00:16:46;2.10;;;2.00;;
20159;SDS011;50187;50.492;12.134;2023-04-24T00:19:13;2.37;;;2.17;;
20159;SDS011;50187;50.492;12.134;2023-04-24T00:21:39;2.20;;;2.10;;
20159;SDS011;50187;50.492;12.134;2023-04-24T00:24:07;1.77;;;1.67;;
20159;SDS011;50187;50.492;12.134;2023-04-24T00:26:35;1.93;;;1.80;;
20159;SDS011;50187;50.492;12.134;2023-04-24T00:29:01;2.10;;;2.00;;
20159;SDS011;50187;50.492;12.134;2023-04-24T00:31:28;1.90;;;1.70;;
20159;SDS011;50187;50.492;12.134;2023-04-24T00:33:54;1.90;;;1.80;;
20159;SDS011;50187;50.492;12.134;2023-04-24T00:36:21;1.97;;;1.83;;
20159;SDS011;50187;50.492;12.134;2023-04-24T00:38:49;2.27;;;2.17;;
20159;SDS011;50187;50.492;12.134;2023-04-24T00:41:15;1.90;;;1.80;;
20159;SDS011;50187;50.492;12.134;2023-04-24T00:43:42;2.00;;;1.90;;
20159;SDS011;50187;50.492;12.134;2023-04-24T00:46:09;1.53;;;1.47;;
20159;SDS011;50187;50.492;12.134;2023-04-24T00:48:37;2.30;;;1.70;;
20159;SDS011;50187;50.492;12.134;2023-04-24T00:51:06;2.07;;;1.87;;
20159;SDS011;50187;50.492;12.134;2023-04-24T00:53:32;1.97;;;1.87;;
20159;SDS011;50187;50.492;12.134;2023-04-24T00:55:59;1.87;;;1.77;;
20159;SDS011;50187;50.492;12.134;2023-04-24T00:58:26;1.97;;;1.83;;
20159;SDS011;50187;50.492;12.134;2023-04-24T01:00:53;2.03;;;1.93;;
20159;SDS011;50187;50.492;12.134;2023-04-24T01:03:21;1.90;;;1.80;;
20159;SDS011;50187;50.492;12.134;2023-04-24T01:05:49;1.93;;;1.83;;
20159;SDS011;50187;50.492;12.134;2023-04-24T01:08:15;1.87;;;1.77;;
20159;SDS011;50187;50.492;12.134;2023-04-24T01:10:42;1.80;;;1.70;;
20159;SDS011;50187;50.492;12.134;2023-04-24T01:13:11;1.73;;;1.63;;
20159;SDS011;50187;50.492;12.134;2023-04-24T01:15:37;1.73;;;1.63;;
20159;SDS011;50187;50.492;12.134;2023-04-24T01:18:04;1.63;;;1.53;;
20159;SDS011;50187;50.492;12.134;2023-04-24T01:20:31;1.60;;;1.60;;
20159;SDS011;50187;50.492;12.134;2023-04-24T01:22:58;1.83;;;1.73;;
20159;SDS011;50187;50.492;12.134;2023-04-24T01:25:25;1.87;;;1.70;;
20159;SDS011;50187;50.492;12.134;2023-04-24T01:27:56;2.00;;;1.80;;
20159;SDS011;50187;50.492;12.134;2023-04-24T01:30:22;1.70;;;1.60;;
20159;SDS011;50187;50.492;12.134;2023-04-24T01:32:50;2.00;;;1.90;;
20159;SDS011;50187;50.492;12.134;2023-04-24T01:35:18;1.97;;;1.77;;
20159;SDS011;50187;50.492;12.134;2023-04-24T01:37:46;1.63;;;1.53;;
20159;SDS011;50187;50.492;12.134;2023-04-24T01:40:12;1.60;;;1.50;;
20159;SDS011;50187;50.492;12.134;2023-04-24T01:42:40;1.53;;;1.43;;
20159;SDS011;50187;50.492;12.134;2023-04-24T01:45:08;1.70;;;1.60;;
20159;SDS011;50187;50.492;12.134;2023-04-24T01:47:37;1.87;;;1.77;;
20159;SDS011;50187;50.492;12.134;2023-04-24T01:50:04;1.60;;;1.50;;
20159;SDS011;50187;50.492;12.134;2023-04-24T01:52:31;1.67;;;1.57;;
20159;SDS011;50187;50.492;12.134;2023-04-24T01:54:59;1.50;;;1.40;;
20159;SDS011;50187;50.492;12.134;2023-04-24T01:57:26;1.10;;;1.10;;
20159;SDS011;50187;50.492;12.134;2023-04-24T01:59:53;1.43;;;1.33;;
20159;SDS011;50187;50.492;12.134;2023-04-24T02:02:19;1.70;;;1.60;;
20159;SDS011;50187;50.492;12.134;2023-04-24T02:04:47;1.40;;;1.40;;
20159;SDS011;50187;50.492;12.134;2023-04-24T02:07:14;1.70;;;1.60;;
20159;SDS011;50187;50.492;12.134;2023-04-24T02:09:40;2.33;;;1.60;;
20159;SDS011;50187;50.492;12.134;2023-04-24T02:12:07;1.23;;;1.23;;
20159;SDS011;50187;50.492;12.134;2023-04-24T02:14:34;1.33;;;1.30;;
20159;SDS011;50187;50.492;12.134;2023-04-24T02:17:02;1.70;;;1.60;;
20159;SDS011;50187;50.492;12.134;2023-04-24T02:19:29;1.20;;;1.20;;
20159;SDS011;50187;50.492;12.134;2023-04-24T02:21:55;1.60;;;1.50;;
20159;SDS011;50187;50.492;12.134;2023-04-24T02:24:22;2.00;;;1.40;;
20159;SDS011;50187;50.492;12.134;2023-04-24T02:26:48;1.87;;;1.67;;
20159;SDS011;50187;50.492;12.134;2023-04-24T02:29:15;1.80;;;1.70;;
20159;SDS011;50187;50.492;12.134;2023-04-24T02:31:41;1.30;;;1.30;;
20159;SDS011;50187;50.492;12.134;2023-04-24T02:34:08;1.20;;;1.20;;
20159;SDS011;50187;50.492;12.134;2023-04-24T02:36:35;1.40;;;1.30;;
20159;SDS011;50187;50.492;12.134;2023-04-24T02:39:02;1.50;;;1.40;;
20159;SDS011;50187;50.492;12.134;2023-04-24T02:41:31;1.53;;;1.33;;
20159;SDS011;50187;50.492;12.134;2023-04-24T02:43:58;1.43;;;1.40;;
20159;SDS011;50187;50.492;12.134;2023-04-24T02:46:25;1.60;;;1.50;;
20159;SDS011;50187;50.492;12.134;2023-04-24T02:48:52;1.70;;;1.60;;
20159;SDS011;50187;50.492;12.134;2023-04-24T02:51:19;1.50;;;1.40;;
20159;SDS011;50187;50.492;12.134;2023-04-24T02:53:45;1.70;;;1.60;;
20159;SDS011;50187;50.492;12.134;2023-04-24T02:56:12;1.70;;;1.60;;
20159;SDS011;50187;50.492;12.134;2023-04-24T02:58:39;1.40;;;1.40;;
20159;SDS011;50187;50.492;12.134;2023-04-24T03:01:05;1.40;;;1.30;;
20159;SDS011;50187;50.492;12.134;2023-04-24T03:03:32;1.47;;;1.37;;
20159;SDS011;50187;50.492;12.134;2023-04-24T03:05:59;1.40;;;1.30;;
20159;SDS011;50187;50.492;12.134;2023-04-24T03:08:25;1.10;;;1.10;;
20159;SDS011;50187;50.492;12.134;2023-04-24T03:10:52;1.40;;;1.30;;
20159;SDS011;50187;50.492;12.134;2023-04-24T03:13:19;1.37;;;1.30;;
20159;SDS011;50187;50.492;12.134;2023-04-24T03:15:45;1.57;;;1.47;;
20159;SDS011;50187;50.492;12.134;2023-04-24T03:18:13;1.10;;;1.10;;
20159;SDS011;50187;50.492;12.134;2023-04-24T03:20:40;1.40;;;1.30;;
20159;SDS011;50187;50.492;12.134;2023-04-24T03:23:06;1.60;;;1.50;;
20159;SDS011;50187;50.492;12.134;2023-04-24T03:25:34;1.30;;;1.30;;
20159;SDS011;50187;50.492;12.134;2023-04-24T03:28:01;1.43;;;1.33;;
20159;SDS011;50187;50.492;12.134;2023-04-24T03:30:37;1.30;;;1.20;;
20159;SDS011;50187;50.492;12.134;2023-04-24T03:33:04;1.37;;;1.37;;
20159;SDS011;50187;50.492;12.134;2023-04-24T03:35:35;1.60;;;1.50;;
20159;SDS011;50187;50.492;12.134;2023-04-24T03:38:06;1.10;;;1.10;;
20159;SDS011;50187;50.492;12.134;2023-04-24T03:40:59;1.67;;;1.57;;
20159;SDS011;50187;50.492;12.134;2023-04-24T03:43:43;2.43;;;1.40;;
20159;SDS011;50187;50.492;12.134;2023-04-24T03:46:09;1.40;;;1.30;;
20159;SDS011;50187;50.492;12.134;2023-04-24T03:48:43;1.10;;;1.10;;
20159;SDS011;50187;50.492;12.134;2023-04-24T03:51:10;1.33;;;1.30;;
20159;SDS011;50187;50.492;12.134;2023-04-24T03:53:40;1.40;;;1.30;;
20159;SDS011;50187;50.492;12.134;2023-04-24T03:56:07;1.30;;;1.20;;
20159;SDS011;50187;50.492;12.134;2023-04-24T03:58:34;1.30;;;1.20;;
20159;SDS011;50187;50.492;12.134;2023-04-24T04:01:01;1.17;;;1.17;;
20159;SDS011;50187;50.492;12.134;2023-04-24T04:03:57;1.10;;;1.10;;
20159;SDS011;50187;50.492;12.134;2023-04-24T04:06:26;1.20;;;1.20;;
20159;SDS011;50187;50.492;12.134;2023-04-24T04:08:54;1.07;;;1.07;;
20159;SDS011;50187;50.492;12.134;2023-04-24T04:11:20;1.40;;;1.30;;
20159;SDS011;50187;50.492;12.134;2023-04-24T04:13:47;1.20;;;1.20;;
20159;SDS011;50187;50.492;12.134;2023-04-24T04:16:17;1.17;;;0.93;;
20159;SDS011;50187;50.492;12.134;2023-04-24T04:18:44;1.30;;;1.30;;
20159;SDS011;50187;50.492;12.134;2023-04-24T04:21:11;1.30;;;1.30;;
20159;SDS011;50187;50.492;12.134;2023-04-24T04:23:38;1.10;;;1.10;;
20159;SDS011;50187;50.492;12.134;2023-04-24T04:26:16;1.13;;;1.03;;
20159;SDS011;50187;50.492;12.134;2023-04-24T04:28:59;1.27;;;1.17;;
20159;SDS011;50187;50.492;12.134;2023-04-24T04:31:31;1.20;;;1.20;;
20159;SDS011;50187;50.492;12.134;2023-04-24T04:34:01;1.60;;;1.50;;
20159;SDS011;50187;50.492;12.134;2023-04-24T04:36:30;1.20;;;1.20;;
20159;SDS011;50187;50.492;12.134;2023-04-24T04:39:04;1.40;;;1.30;;
20159;SDS011;50187;50.492;12.134;2023-04-24T04:41:42;1.30;;;1.30;;
20159;SDS011;50187;50.492;12.134;2023-04-24T04:44:09;1.20;;;1.20;;
20159;SDS011;50187;50.492;12.134;2023-04-24T04:46:36;1.50;;;1.40;;
20159;SDS011;50187;50.492;12.134;2023-04-24T04:49:21;1.40;;;1.30;;
20159;SDS011;50187;50.492;12.134;2023-04-24T04:51:50;1.13;;;1.13;;
20159;SDS011;50187;50.492;12.134;2023-04-24T04:54:18;1.10;;;1.10;;
20159;SDS011;50187;50.492;12.134;2023-04-24T04:56:44;1.00;;;1.00;;
20159;SDS011;50187;50.492;12.134;2023-04-24T04:59:11;0.93;;;0.93;;
20159;SDS011;50187;50.492;12.134;2023-04-24T05:01:38;1.17;;;1.17;;
20159;SDS011;50187;50.492;12.134;2023-04-24T05:04:07;1.60;;;0.87;;
20159;SDS011;50187;50.492;12.134;2023-04-24T05:06:34;1.20;;;1.10;;
20159;SDS011;50187;50.492;12.134;2023-04-24T05:09:00;1.17;;;1.17;;
20159;SDS011;50187;50.492;12.134;2023-04-24T05:11:50;1.13;;;1.00;;
20159;SDS011;50187;50.492;12.134;2023-04-24T05:14:17;1.00;;;1.00;;
20159;SDS011;50187;50.492;12.134;2023-04-24T05:16:44;1.20;;;1.20;;
20159;SDS011;50187;50.492;12.134;2023-04-24T05:19:12;1.73;;;1.20;;
20159;SDS011;50187;50.492;12.134;2023-04-24T05:21:40;1.10;;;1.03;;
20159;SDS011;50187;50.492;12.134;2023-04-24T05:24:09;1.10;;;1.10;;
20159;SDS011;50187;50.492;12.134;2023-04-24T05:27:02;1.20;;;1.10;;
20159;SDS011;50187;50.492;12.134;2023-04-24T05:29:36;1.07;;;1.07;;
20159;SDS011;50187;50.492;12.134;2023-04-24T05:32:04;1.20;;;1.10;;
20159;SDS011;50187;50.492;12.134;2023-04-24T05:34:31;1.60;;;1.27;;
20159;SDS011;50187;50.492;12.134;2023-04-24T05:36:57;1.17;;;1.03;;
20159;SDS011;50187;50.492;12.134;2023-04-24T05:39:25;4.60;;;1.23;;
20159;SDS011;50187;50.492;12.134;2023-04-24T05:41:52;1.10;;;1.00;;
20159;SDS011;50187;50.492;12.134;2023-04-24T05:44:19;1.50;;;1.40;;
20159;SDS011;50187;50.492;12.134;2023-04-24T05:46:46;1.60;;;1.50;;
20159;SDS011;50187;50.492;12.134;2023-04-24T05:49:13;5.40;;;1.23;;
20159;SDS011;50187;50.492;12.134;2023-04-24T05:51:40;0.90;;;0.80;;
20159;SDS011;50187;50.492;12.134;2023-04-24T05:54:06;2.80;;;1.30;;
20159;SDS011;50187;50.492;12.134;2023-04-24T05:56:33;1.10;;;1.10;;
20159;SDS011;50187;50.492;12.134;2023-04-24T05:59:05;2.97;;;1.17;;
20159;SDS011;50187;50.492;12.134;2023-04-24T06:01:32;1.83;;;1.10;;
20159;SDS011;50187;50.492;12.134;2023-04-24T06:04:07;1.20;;;1.20;;
20159;SDS011;50187;50.492;12.134;2023-04-24T06:06:34;0.87;;;0.87;;
20159;SDS011;50187;50.492;12.134;2023-04-24T06:09:02;1.20;;;1.10;;
20159;SDS011;50187;50.492;12.134;2023-04-24T06:11:29;0.97;;;0.97;;
20159;SDS011;50187;50.492;12.134;2023-04-24T06:13:56;0.93;;;0.93;;
20159;SDS011;50187;50.492;12.134;2023-04-24T06:16:38;1.00;;;1.00;;
20159;SDS011;50187;50.492;12.134;2023-04-24T06:19:15;1.30;;;1.20;;
20159;SDS011;50187;50.492;12.134;2023-04-24T06:21:42;1.10;;;1.10;;
20159;SDS011;50187;50.492;12.134;2023-04-24T06:24:09;1.30;;;1.13;;
20159;SDS011;50187;50.492;12.134;2023-04-24T06:26:35;1.03;;;1.03;;
20159;SDS011;50187;50.492;12.134;2023-04-24T06:29:02;1.20;;;1.10;;
20159;SDS011;50187;50.492;12.134;2023-04-24T06:31:28;0.93;;;0.90;;
20159;SDS011;50187;50.492;12.134;2023-04-24T06:33:55;1.20;;;1.10;;
20159;SDS011;50187;50.492;12.134;2023-04-24T06:36:24;2.27;;;1.37;;
20159;SDS011;50187;50.492;12.134;2023-04-24T06:38:50;2.23;;;1.00;;
20159;SDS011;50187;50.492;12.134;2023-04-24T06:41:17;2.37;;;1.27;;
20159;SDS011;50187;50.492;12.134;2023-04-24T06:43:43;3.80;;;1.57;;
20159;SDS011;50187;50.492;12.134;2023-04-24T06:46:10;2.77;;;1.40;;
20159;SDS011;50187;50.492;12.134;2023-04-24T06:48:38;5.30;;;1.60;;
20159;SDS011;50187;50.492;12.134;2023-04-24T06:51:05;6.00;;;1.83;;
20159;SDS011;50187;50.492;12.134;2023-04-24T06:53:32;3.87;;;2.20;;
20159;SDS011;50187;50.492;12.134;2023-04-24T06:55:59;6.30;;;2.50;;
20159;SDS011;50187;50.492;12.134;2023-04-24T06:58:25;7.93;;;4.70;;
20159;SDS011;50187;50.492;12.134;2023-04-24T07:00:52;10.30;;;7.80;;
20159;SDS011;50187;50.492;12.134;2023-04-24T07:03:19;9.90;;;8.90;;
20159;SDS011;50187;50.492;12.134;2023-04-24T07:05:46;15.17;;;12.43;;
20159;SDS011;50187;50.492;12.134;2023-04-24T07:08:13;15.70;;;12.00;;
20159;SDS011;50187;50.492;12.134;2023-04-24T07:10:40;11.47;;;10.27;;
20159;SDS011;50187;50.492;12.134;2023-04-24T07:13:06;13.20;;;10.27;;
20159;SDS011;50187;50.492;12.134;2023-04-24T07:15:34;10.33;;;9.30;;
20159;SDS011;50187;50.492;12.134;2023-04-24T07:18:01;11.60;;;9.23;;
20159;SDS011;50187;50.492;12.134;2023-04-24T07:20:31;10.17;;;8.50;;
20159;SDS011;50187;50.492;12.134;2023-04-24T07:22:57;21.20;;;17.83;;
20159;SDS011;50187;50.492;12.134;2023-04-24T07:25:24;37.63;;;28.33;;
20159;SDS011;50187;50.492;12.134;2023-04-24T07:27:50;39.70;;;28.77;;
20159;SDS011;50187;50.492;12.134;2023-04-24T07:30:16;25.30;;;20.33;;
20159;SDS011;50187;50.492;12.134;2023-04-24T07:32:43;20.57;;;17.33;;
20159;SDS011;50187;50.492;12.134;2023-04-24T07:35:10;19.27;;;15.83;;
20159;SDS011;50187;50.492;12.134;2023-04-24T07:37:37;18.90;;;14.83;;
20159;SDS011;50187;50.492;12.134;2023-04-24T07:40:03;18.57;;;14.90;;
20159;SDS011;50187;50.492;12.134;2023-04-24T07:42:30;23.40;;;13.97;;
20159;SDS011;50187;50.492;12.134;2023-04-24T07:44:57;15.43;;;12.90;;
20159;SDS011;50187;50.492;12.134;2023-04-24T07:47:23;16.73;;;12.60;;
20159;SDS011;50187;50.492;12.134;2023-04-24T07:49:50;13.73;;;12.00;;
20159;SDS011;50187;50.492;12.134;2023-04-24T07:52:16;13.13;;;11.23;;
20159;SDS011;50187;50.492;12.134;2023-04-24T07:54:43;12.10;;;10.97;;
20159;SDS011;50187;50.492;12.134;2023-04-24T07:57:10;21.37;;;11.33;;
20159;SDS011;50187;50.492;12.134;2023-04-24T07:59:36;13.83;;;10.97;;
20159;SDS011;50187;50.492;12.134;2023-04-24T08:02:03;12.60;;;10.00;;
20159;SDS011;50187;50.492;12.134;2023-04-24T08:04:30;12.30;;;9.83;;
20159;SDS011;50187;50.492;12.134;2023-04-24T08:06:57;13.63;;;10.83;;
20159;SDS011;50187;50.492;12.134;2023-04-24T08:09:23;14.23;;;9.67;;
20159;SDS011;50187;50.492;12.134;2023-04-24T08:11:52;10.80;;;9.27;;
20159;SDS011;50187;50.492;12.134;2023-04-24T08:14:19;62.40;;;33.10;;
20159;SDS011;50187;50.492;12.134;2023-04-24T08:16:46;35.70;;;22.37;;
20159;SDS011;50187;50.492;12.134;2023-04-24T08:19:13;46.07;;;24.97;;
20159;SDS011;50187;50.492;12.134;2023-04-24T08:21:39;44.27;;;23.23;;
20159;SDS011;50187;50.492;12.134;2023-04-24T08:24:06;36.80;;;20.60;;
20159;SDS011;50187;50.492;12.134;2023-04-24T08:26:34;36.13;;;21.23;;
20159;SDS011;50187;50.492;12.134;2023-04-24T08:29:00;28.53;;;20.37;;
20159;SDS011;50187;50.492;12.134;2023-04-24T08:31:27;48.97;;;26.27;;
20159;SDS011;50187;50.492;12.134;2023-04-24T08:33:53;41.23;;;23.50;;
20159;SDS011;50187;50.492;12.134;2023-04-24T08:36:20;41.80;;;22.53;;
20159;SDS011;50187;50.492;12.134;2023-04-24T08:38:48;39.90;;;23.13;;
20159;SDS011;50187;50.492;12.134;2023-04-24T08:41:15;36.83;;;22.40;;
20159;SDS011;50187;50.492;12.134;2023-04-24T08:43:44;35.90;;;21.47;;
20159;SDS011;50187;50.492;12.134;2023-04-24T08:46:13;37.27;;;21.80;;
20159;SDS011;50187;50.492;12.134;2023-04-24T08:48:39;35.40;;;21.27;;
20159;SDS011;50187;50.492;12.134;2023-04-24T08:51:07;33.00;;;20.43;;
20159;SDS011;50187;50.492;12.134;2023-04-24T08:53:34;32.20;;;17.90;;
20159;SDS011;50187;50.492;12.134;2023-04-24T08:56:02;27.20;;;17.70;;
20159;SDS011;50187;50.492;12.134;2023-04-24T08:58:29;25.63;;;15.93;;
20159;SDS011;50187;50.492;12.134;2023-04-24T09:00:57;27.67;;;17.67;;
20159;SDS011;50187;50.492;12.134;2023-04-24T09:03:24;22.73;;;14.97;;
20159;SDS011;50187;50.492;12.134;2023-04-24T09:05:54;22.10;;;13.97;;
20159;SDS011;50187;50.492;12.134;2023-04-24T09:08:22;25.60;;;14.97;;
20159;SDS011;50187;50.492;12.134;2023-04-24T09:10:51;24.43;;;14.37;;
20159;SDS011;50187;50.492;12.134;2023-04-24T09:13:18;20.33;;;13.30;;
20159;SDS011;50187;50.492;12.134;2023-04-24T09:15:46;20.97;;;13.17;;
20159;SDS011;50187;50.492;12.134;2023-04-24T09:18:13;17.47;;;12.43;;
20159;SDS011;50187;50.492;12.134;2023-04-24T09:23:28;23.30;;;12.10;;
20159;SDS011;50187;50.492;12.134;2023-04-24T09:25:56;19.40;;;11.50;;
20159;SDS011;50187;50.492;12.134;2023-04-24T09:28:27;18.87;;;12.27;;
20159;SDS011;50187;50.492;12.134;2023-04-24T09:31:13;15.97;;;11.13;;
20159;SDS011;50187;50.492;12.134;2023-04-24T09:36:33;14.03;;;9.57;;
20159;SDS011;50187;50.492;12.134;2023-04-24T09:39:04;16.00;;;9.90;;
20159;SDS011;50187;50.492;12.134;2023-04-24T09:41:32;14.80;;;9.27;;
20159;SDS011;50187;50.492;12.134;2023-04-24T09:44:12;16.00;;;9.83;;
20159;SDS011;50187;50.492;12.134;2023-04-24T09:46:41;14.97;;;9.33;;
20159;SDS011;50187;50.492;12.134;2023-04-24T09:49:15;11.30;;;7.73;;
20159;SDS011;50187;50.492;12.134;2023-04-24T09:51:43;12.17;;;8.67;;
20159;SDS011;50187;50.492;12.134;2023-04-24T09:54:13;9.73;;;7.50;;
20159;SDS011;50187;50.492;12.134;2023-04-24T09:56:45;14.93;;;8.63;;
20159;SDS011;50187;50.492;12.134;2023-04-24T09:59:16;12.27;;;8.17;;
20159;SDS011;50187;50.492;12.134;2023-04-24T10:01:43;10.97;;;7.70;;
20159;SDS011;50187;50.492;12.134;2023-04-24T10:04:24;9.27;;;7.67;;
20159;SDS011;50187;50.492;12.134;2023-04-24T10:06:52;11.67;;;7.53;;
20159;SDS011;50187;50.492;12.134;2023-04-24T10:09:21;9.43;;;7.50;;
20159;SDS011;50187;50.492;12.134;2023-04-24T10:11:50;11.23;;;7.17;;
20159;SDS011;50187;50.492;12.134;2023-04-24T10:14:20;9.40;;;6.27;;
20159;SDS011;50187;50.492;12.134;2023-04-24T10:16:49;7.80;;;5.80;;
20159;SDS011;50187;50.492;12.134;2023-04-24T10:19:16;9.07;;;6.30;;
20159;SDS011;50187;50.492;12.134;2023-04-24T10:21:46;7.87;;;5.97;;
20159;SDS011;50187;50.492;12.134;2023-04-24T10:24:13;10.40;;;6.13;;
20159;SDS011;50187;50.492;12.134;2023-04-24T10:26:44;7.33;;;5.57;;
20159;SDS011;50187;50.492;12.134;2023-04-24T10:29:12;7.33;;;5.90;;
20159;SDS011;50187;50.492;12.134;2023-04-24T10:31:41;6.53;;;5.40;;
20159;SDS011;50187;50.492;12.134;2023-04-24T10:34:11;8.63;;;5.33;;
20159;SDS011;50187;50.492;12.134;2023-04-24T10:36:39;9.40;;;5.47;;
20159;SDS011;50187;50.492;12.134;2023-04-24T10:39:09;6.90;;;4.40;;
20159;SDS011;50187;50.492;12.134;2023-04-24T10:41:38;9.43;;;5.17;;
20159;SDS011;50187;50.492;12.134;2023-04-24T10:44:05;6.57;;;5.23;;
20159;SDS011;50187;50.492;12.134;2023-04-24T10:46:33;5.57;;;4.03;;
20159;SDS011;50187;50.492;12.134;2023-04-24T10:48:59;5.73;;;4.43;;
20159;SDS011;50187;50.492;12.134;2023-04-24T10:51:44;8.60;;;4.37;;
20159;SDS011;50187;50.492;12.134;2023-04-24T10:59:46;2.63;;;2.30;;
20159;SDS011;50187;50.492;12.134;2023-04-24T11:02:14;4.47;;;2.13;;
20159;SDS011;50187;50.492;12.134;2023-04-24T11:04:44;3.10;;;2.30;;
20159;SDS011;50187;50.492;12.134;2023-04-24T11:07:14;1.77;;;1.60;;
20159;SDS011;50187;50.492;12.134;2023-04-24T11:09:41;2.70;;;1.50;;
20159;SDS011;50187;50.492;12.134;2023-04-24T11:12:10;2.57;;;1.40;;
20159;SDS011;50187;50.492;12.134;2023-04-24T11:17:31;1.87;;;1.67;;
20159;SDS011;50187;50.492;12.134;2023-04-24T11:20:01;2.50;;;1.80;;
20159;SDS011;50187;50.492;12.134;2023-04-24T11:22:52;1.97;;;1.77;;
20159;SDS011;50187;50.492;12.134;2023-04-24T11:25:20;3.27;;;1.47;;
20159;SDS011;50187;50.492;12.134;2023-04-24T11:27:48;1.50;;;1.40;;
20159;SDS011;50187;50.492;12.134;2023-04-24T11:30:19;1.70;;;1.50;;
20159;SDS011;50187;50.492;12.134;2023-04-24T11:32:47;1.93;;;1.73;;
20159;SDS011;50187;50.492;12.134;2023-04-24T11:35:17;3.03;;;1.47;;
20159;SDS011;50187;50.492;12.134;2023-04-24T11:37:53;1.57;;;1.37;;
20159;SDS011;50187;50.492;12.134;2023-04-24T11:40:41;2.73;;;1.30;;
20159;SDS011;50187;50.492;12.134;2023-04-24T11:43:08;2.67;;;1.50;;
20159;SDS011;50187;50.492;12.134;2023-04-24T11:45:35;1.20;;;1.10;;
20159;SDS011;50187;50.492;12.134;2023-04-24T11:48:02;1.40;;;1.30;;
20159;SDS011;50187;50.492;12.134;2023-04-24T11:50:29;1.70;;;1.47;;
20159;SDS011;50187;50.492;12.134;2023-04-24T11:52:57;1.60;;;1.50;;
20159;SDS011;50187;50.492;12.134;2023-04-24T11:55:25;4.07;;;1.73;;
20159;SDS011;50187;50.492;12.134;2023-04-24T11:57:54;3.23;;;1.23;;
20159;SDS011;50187;50.492;12.134;2023-04-24T12:00:28;1.00;;;1.00;;
20159;SDS011;50187;50.492;12.134;2023-04-24T12:03:30;1.40;;;1.30;;
20159;SDS011;50187;50.492;12.134;2023-04-24T12:05:49;3.30;;;1.53;;
20159;SDS011;50187;50.492;12.134;2023-04-24T12:08:28;3.00;;;1.30;;
20159;SDS011;50187;50.492;12.134;2023-04-24T12:10:55;1.80;;;1.47;;
20159;SDS011;50187;50.492;12.134;2023-04-24T12:13:21;1.60;;;1.50;;
20159;SDS011;50187;50.492;12.134;2023-04-24T12:15:49;1.50;;;1.40;;
20159;SDS011;50187;50.492;12.134;2023-04-24T12:18:16;1.43;;;1.33;;
20159;SDS011;50187;50.492;12.134;2023-04-24T12:20:43;2.03;;;1.50;;
20159;SDS011;50187;50.492;12.134;2023-04-24T12:23:10;1.63;;;1.20;;
20159;SDS011;50187;50.492;12.134;2023-04-24T12:25:38;3.00;;;1.63;;
20159;SDS011;50187;50.492;12.134;2023-04-24T12:30:32;2.97;;;1.50;;
20159;SDS011;50187;50.492;12.134;2023-04-24T12:33:05;6.07;;;1.67;;
20159;SDS011;50187;50.492;12.134;2023-04-24T12:35:32;1.43;;;1.33;;
20159;SDS011;50187;50.492;12.134;2023-04-24T12:38:09;2.17;;;1.53;;
20159;SDS011;50187;50.492;12.134;2023-04-24T12:40:39;1.50;;;1.40;;
20159;SDS011;50187;50.492;12.134;2023-04-24T12:43:17;6.07;;;1.60;;
20159;SDS011;50187;50.492;12.134;2023-04-24T12:45:45;8.10;;;1.73;;
20159;SDS011;50187;50.492;12.134;2023-04-24T12:48:13;1.43;;;1.33;;
20159;SDS011;50187;50.492;12.134;2023-04-24T12:50:40;1.47;;;1.37;;
20159;SDS011;50187;50.492;12.134;2023-04-24T12:53:10;2.40;;;1.70;;
20159;SDS011;50187;50.492;12.134;2023-04-24T12:55:36;2.40;;;1.70;;
20159;SDS011;50187;50.492;12.134;2023-04-24T12:58:03;4.17;;;1.50;;
20159;SDS011;50187;50.492;12.134;2023-04-24T13:00:29;3.20;;;2.90;;
20159;SDS011;50187;50.492;12.134;2023-04-24T13:02:56;4.43;;;4.00;;
20159;SDS011;50187;50.492;12.134;2023-04-24T13:05:23;9.90;;;9.03;;
20159;SDS011;50187;50.492;12.134;2023-04-24T13:07:50;117.03;;;107.13;;
20159;SDS011;50187;50.492;12.134;2023-04-24T13:10:17;109.37;;;100.13;;
20159;SDS011;50187;50.492;12.134;2023-04-24T13:12:45;103.73;;;95.10;;
20159;SDS011;50187;50.492;12.134;2023-04-24T13:15:12;93.20;;;85.57;;
20159;SDS011;50187;50.492;12.134;2023-04-24T13:17:39;74.80;;;68.13;;
20159;SDS011;50187;50.492;12.134;2023-04-24T13:20:06;59.67;;;54.67;;
20159;SDS011;50187;50.492;12.134;2023-04-24T13:22:33;69.43;;;63.87;;
20159;SDS011;50187;50.492;12.134;2023-04-24T13:24:59;57.00;;;52.20;;
20159;SDS011;50187;50.492;12.134;2023-04-24T13:27:27;49.80;;;45.57;;
20159;SDS011;50187;50.492;12.134;2023-04-24T13:29:54;37.83;;;34.70;;
20159;SDS011;50187;50.492;12.134;2023-04-24T13:32:20;29.63;;;27.07;;
20159;SDS011;50187;50.492;12.134;2023-04-24T13:34:47;24.60;;;22.60;;
20159;SDS011;50187;50.492;12.134;2023-04-24T13:37:13;21.37;;;19.30;;
20159;SDS011;50187;50.492;12.134;2023-04-24T13:39:40;18.83;;;17.20;;
20159;SDS011;50187;50.492;12.134;2023-04-24T13:42:08;15.10;;;13.70;;
20159;SDS011;50187;50.492;12.134;2023-04-24T13:44:34;11.60;;;10.60;;
20159;SDS011;50187;50.492;12.134;2023-04-24T13:47:01;10.83;;;9.93;;
20159;SDS011;50187;50.492;12.134;2023-04-24T13:49:27;11.10;;;8.60;;
20159;SDS011;50187;50.492;12.134;2023-04-24T13:51:54;8.33;;;7.53;;
20159;SDS011;50187;50.492;12.134;2023-04-24T13:54:21;7.23;;;6.63;;
20159;SDS011;50187;50.492;12.134;2023-04-24T13:56:51;8.20;;;7.50;;
20159;SDS011;50187;50.492;12.134;2023-04-24T13:59:19;6.90;;;6.17;;
20159;SDS011;50187;50.492;12.134;2023-04-24T14:01:47;5.87;;;5.37;;
20159;SDS011;50187;50.492;12.134;2023-04-24T14:04:14;5.40;;;4.90;;
20159;SDS011;50187;50.492;12.134;2023-04-24T14:06:41;4.87;;;4.47;;
20159;SDS011;50187;50.492;12.134;2023-04-24T14:09:07;5.30;;;4.80;;
20159;SDS011;50187;50.492;12.134;2023-04-24T14:11:34;4.70;;;4.30;;
20159;SDS011;50187;50.492;12.134;2023-04-24T14:14:01;5.17;;;4.23;;
20159;SDS011;50187;50.492;12.134;2023-04-24T14:16:28;3.77;;;3.47;;
20159;SDS011;50187;50.492;12.134;2023-04-24T14:18:55;5.13;;;4.07;;
20159;SDS011;50187;50.492;12.134;2023-04-24T14:21:22;4.27;;;3.63;;
20159;SDS011;50187;50.492;12.134;2023-04-24T14:23:48;6.87;;;3.40;;
20159;SDS011;50187;50.492;12.134;2023-04-24T14:26:15;3.20;;;2.90;;
20159;SDS011;50187;50.492;12.134;2023-04-24T14:28:41;3.50;;;3.10;;
20159;SDS011;50187;50.492;12.134;2023-04-24T14:31:08;3.20;;;2.23;;
20159;SDS011;50187;50.492;12.134;2023-04-24T14:33:35;2.60;;;2.40;;
20159;SDS011;50187;50.492;12.134;2023-04-24T14:36:02;4.03;;;2.67;;
20159;SDS011;50187;50.492;12.134;2023-04-24T14:38:30;2.30;;;2.10;;
20159;SDS011;50187;50.492;12.134;2023-04-24T14:40:57;4.13;;;2.20;;
20159;SDS011;50187;50.492;12.134;2023-04-24T14:43:33;5.43;;;1.90;;
20159;SDS011;50187;50.492;12.134;2023-04-24T14:46:01;1.90;;;1.80;;
20159;SDS011;50187;50.492;12.134;2023-04-24T14:48:28;1.93;;;1.83;;
20159;SDS011;50187;50.492;12.134;2023-04-24T14:50:54;1.63;;;1.53;;
20159;SDS011;50187;50.492;12.134;2023-04-24T14:53:21;2.13;;;1.70;;